sensor_id;sensor_type;location;lat;lon;timestamp;P1;durP1;ratioP1;P2;durP2;ratioP2
50010;SDS011;35899;50.352;19.390;2022-10-16T00:01:39;33.00;;;18.98;;
50010;SDS011;35899;50.352;19.390;2022-10-16T00:04:06;29.70;;;18.10;;
50010;SDS011;35899;50.352;19.390;2022-10-16T00:06:34;33.53;;;19.32;;
50010;SDS011;35899;50.352;19.390;2022-10-16T00:09:01;27.90;;;18.17;;
50010;SDS011;35899;50.352;19.390;2022-10-16T00:11:30;31.75;;;19.27;;
50010;SDS011;35899;50.352;19.390;2022-10-16T00:14:01;30.60;;;19.52;;
50010;SDS011;35899;50.352;19.390;2022-10-16T00:16:32;30.92;;;19.20;;
50010;SDS011;35899;50.352;19.390;2022-10-16T00:19:00;28.27;;;18.75;;
50010;SDS011;35899;50.352;19.390;2022-10-16T00:21:28;30.95;;;18.77;;
50010;SDS011;35899;50.352;19.390;2022-10-16T00:23:58;26.57;;;17.77;;
50010;SDS011;35899;50.352;19.390;2022-10-16T00:26:29;30.88;;;18.35;;
50010;SDS011;35899;50.352;19.390;2022-10-16T00:28:59;28.65;;;18.35;;
50010;SDS011;35899;50.352;19.390;2022-10-16T00:31:26;28.35;;;18.73;;
50010;SDS011;35899;50.352;19.390;2022-10-16T00:33:54;28.30;;;18.30;;
50010;SDS011;35899;50.352;19.390;2022-10-16T00:36:21;27.93;;;18.07;;
50010;SDS011;35899;50.352;19.390;2022-10-16T00:38:51;27.25;;;18.25;;
50010;SDS011;35899;50.352;19.390;2022-10-16T00:41:22;31.48;;;18.57;;
50010;SDS011;35899;50.352;19.390;2022-10-16T00:43:51;28.15;;;17.82;;
50010;SDS011;35899;50.352;19.390;2022-10-16T00:46:28;26.85;;;18.25;;
50010;SDS011;35899;50.352;19.390;2022-10-16T00:49:05;29.60;;;18.37;;
50010;SDS011;35899;50.352;19.390;2022-10-16T00:51:51;32.95;;;18.67;;
50010;SDS011;35899;50.352;19.390;2022-10-16T00:54:23;28.87;;;19.35;;
50010;SDS011;35899;50.352;19.390;2022-10-16T00:56:54;30.88;;;21.75;;
50010;SDS011;35899;50.352;19.390;2022-10-16T01:01:59;31.75;;;19.87;;
50010;SDS011;35899;50.352;19.390;2022-10-16T01:04:29;29.20;;;20.92;;
50010;SDS011;35899;50.352;19.390;2022-10-16T01:09:57;32.28;;;19.30;;
50010;SDS011;35899;50.352;19.390;2022-10-16T01:13:03;28.65;;;18.57;;
50010;SDS011;35899;50.352;19.390;2022-10-16T01:20:51;26.17;;;17.07;;
50010;SDS011;35899;50.352;19.390;2022-10-16T01:29:30;27.73;;;17.45;;
50010;SDS011;35899;50.352;19.390;2022-10-16T01:38:06;30.77;;;18.92;;
50010;SDS011;35899;50.352;19.390;2022-10-16T01:40:38;28.47;;;18.48;;
50010;SDS011;35899;50.352;19.390;2022-10-16T01:43:09;29.48;;;18.77;;
50010;SDS011;35899;50.352;19.390;2022-10-16T01:45:55;26.93;;;17.57;;
50010;SDS011;35899;50.352;19.390;2022-10-16T01:48:22;33.33;;;19.17;;
50010;SDS011;35899;50.352;19.390;2022-10-16T01:50:53;30.85;;;18.35;;
50010;SDS011;35899;50.352;19.390;2022-10-16T01:53:29;28.90;;;18.37;;
50010;SDS011;35899;50.352;19.390;2022-10-16T01:55:58;27.65;;;17.82;;
50010;SDS011;35899;50.352;19.390;2022-10-16T01:58:27;28.95;;;17.48;;
50010;SDS011;35899;50.352;19.390;2022-10-16T02:00:58;26.93;;;17.67;;
50010;SDS011;35899;50.352;19.390;2022-10-16T02:03:25;29.18;;;18.05;;
50010;SDS011;35899;50.352;19.390;2022-10-16T02:05:53;31.42;;;19.02;;
50010;SDS011;35899;50.352;19.390;2022-10-16T02:08:23;26.97;;;17.23;;
50010;SDS011;35899;50.352;19.390;2022-10-16T02:10:55;27.30;;;18.10;;
50010;SDS011;35899;50.352;19.390;2022-10-16T02:13:37;31.50;;;19.20;;
50010;SDS011;35899;50.352;19.390;2022-10-16T02:16:17;30.02;;;18.12;;
50010;SDS011;35899;50.352;19.390;2022-10-16T02:18:45;33.73;;;19.60;;
50010;SDS011;35899;50.352;19.390;2022-10-16T02:24:33;31.57;;;18.35;;
50010;SDS011;35899;50.352;19.390;2022-10-16T02:30:30;33.48;;;20.15;;
50010;SDS011;35899;50.352;19.390;2022-10-16T02:33:00;29.18;;;18.95;;
50010;SDS011;35899;50.352;19.390;2022-10-16T02:35:31;31.52;;;18.57;;
50010;SDS011;35899;50.352;19.390;2022-10-16T02:37:58;28.85;;;18.05;;
50010;SDS011;35899;50.352;19.390;2022-10-16T02:40:26;29.45;;;18.48;;
50010;SDS011;35899;50.352;19.390;2022-10-16T02:42:54;32.50;;;20.27;;
50010;SDS011;35899;50.352;19.390;2022-10-16T02:45:22;33.38;;;19.00;;
50010;SDS011;35899;50.352;19.390;2022-10-16T02:47:49;32.58;;;18.67;;
50010;SDS011;35899;50.352;19.390;2022-10-16T02:50:17;29.15;;;19.70;;
50010;SDS011;35899;50.352;19.390;2022-10-16T02:52:44;30.25;;;18.30;;
50010;SDS011;35899;50.352;19.390;2022-10-16T02:55:11;29.07;;;19.65;;
50010;SDS011;35899;50.352;19.390;2022-10-16T02:57:38;27.02;;;17.82;;
50010;SDS011;35899;50.352;19.390;2022-10-16T03:00:07;28.25;;;18.23;;
50010;SDS011;35899;50.352;19.390;2022-10-16T03:02:36;31.50;;;18.70;;
50010;SDS011;35899;50.352;19.390;2022-10-16T03:05:03;30.17;;;19.17;;
50010;SDS011;35899;50.352;19.390;2022-10-16T03:07:31;36.95;;;21.93;;
50010;SDS011;35899;50.352;19.390;2022-10-16T03:09:59;31.37;;;19.98;;
50010;SDS011;35899;50.352;19.390;2022-10-16T03:12:26;28.25;;;19.05;;
50010;SDS011;35899;50.352;19.390;2022-10-16T03:14:57;30.12;;;19.02;;
50010;SDS011;35899;50.352;19.390;2022-10-16T03:17:25;33.38;;;19.20;;
50010;SDS011;35899;50.352;19.390;2022-10-16T03:19:52;28.83;;;16.90;;
50010;SDS011;35899;50.352;19.390;2022-10-16T03:22:19;27.67;;;17.87;;
50010;SDS011;35899;50.352;19.390;2022-10-16T03:24:46;29.30;;;17.17;;
50010;SDS011;35899;50.352;19.390;2022-10-16T03:27:13;27.50;;;17.82;;
50010;SDS011;35899;50.352;19.390;2022-10-16T03:29:40;27.60;;;17.98;;
50010;SDS011;35899;50.352;19.390;2022-10-16T03:32:07;29.45;;;17.85;;
50010;SDS011;35899;50.352;19.390;2022-10-16T03:34:34;31.52;;;16.82;;
50010;SDS011;35899;50.352;19.390;2022-10-16T03:37:02;28.20;;;16.12;;
50010;SDS011;35899;50.352;19.390;2022-10-16T03:39:29;28.90;;;18.15;;
50010;SDS011;35899;50.352;19.390;2022-10-16T03:41:56;28.47;;;18.90;;
50010;SDS011;35899;50.352;19.390;2022-10-16T03:44:23;30.62;;;18.10;;
50010;SDS011;35899;50.352;19.390;2022-10-16T03:46:50;25.97;;;16.73;;
50010;SDS011;35899;50.352;19.390;2022-10-16T03:49:17;31.90;;;19.82;;
50010;SDS011;35899;50.352;19.390;2022-10-16T03:51:44;35.52;;;22.80;;
50010;SDS011;35899;50.352;19.390;2022-10-16T03:54:11;30.02;;;20.12;;
50010;SDS011;35899;50.352;19.390;2022-10-16T03:56:39;37.65;;;23.45;;
50010;SDS011;35899;50.352;19.390;2022-10-16T03:59:06;29.45;;;20.75;;
50010;SDS011;35899;50.352;19.390;2022-10-16T04:01:33;32.60;;;19.95;;
50010;SDS011;35899;50.352;19.390;2022-10-16T04:04:00;29.52;;;20.02;;
50010;SDS011;35899;50.352;19.390;2022-10-16T04:06:27;27.45;;;19.07;;
50010;SDS011;35899;50.352;19.390;2022-10-16T04:08:54;27.30;;;18.85;;
50010;SDS011;35899;50.352;19.390;2022-10-16T04:11:22;30.02;;;18.60;;
50010;SDS011;35899;50.352;19.390;2022-10-16T04:13:49;28.17;;;17.67;;
50010;SDS011;35899;50.352;19.390;2022-10-16T04:16:16;29.52;;;17.35;;
50010;SDS011;35899;50.352;19.390;2022-10-16T04:18:43;24.15;;;15.32;;
50010;SDS011;35899;50.352;19.390;2022-10-16T04:21:10;24.50;;;16.57;;
50010;SDS011;35899;50.352;19.390;2022-10-16T04:23:37;25.70;;;16.40;;
50010;SDS011;35899;50.352;19.390;2022-10-16T04:26:04;42.50;;;26.62;;
50010;SDS011;35899;50.352;19.390;2022-10-16T04:28:32;34.13;;;22.02;;
50010;SDS011;35899;50.352;19.390;2022-10-16T04:30:59;56.33;;;36.08;;
50010;SDS011;35899;50.352;19.390;2022-10-16T04:33:26;52.27;;;35.30;;
50010;SDS011;35899;50.352;19.390;2022-10-16T04:35:56;66.90;;;40.78;;
50010;SDS011;35899;50.352;19.390;2022-10-16T04:38:25;85.67;;;51.20;;
50010;SDS011;35899;50.352;19.390;2022-10-16T04:40:52;62.20;;;40.00;;
50010;SDS011;35899;50.352;19.390;2022-10-16T04:43:19;53.65;;;32.20;;
50010;SDS011;35899;50.352;19.390;2022-10-16T04:45:47;51.15;;;33.25;;
50010;SDS011;35899;50.352;19.390;2022-10-16T04:48:16;42.23;;;28.35;;
50010;SDS011;35899;50.352;19.390;2022-10-16T04:50:44;37.60;;;25.43;;
50010;SDS011;35899;50.352;19.390;2022-10-16T04:53:11;37.50;;;24.05;;
50010;SDS011;35899;50.352;19.390;2022-10-16T04:55:39;38.42;;;22.73;;
50010;SDS011;35899;50.352;19.390;2022-10-16T04:58:07;26.02;;;18.45;;
50010;SDS011;35899;50.352;19.390;2022-10-16T05:00:35;29.05;;;18.32;;
50010;SDS011;35899;50.352;19.390;2022-10-16T05:03:04;29.00;;;17.95;;
50010;SDS011;35899;50.352;19.390;2022-10-16T05:05:35;23.42;;;16.37;;
50010;SDS011;35899;50.352;19.390;2022-10-16T05:08:03;25.05;;;16.45;;
50010;SDS011;35899;50.352;19.390;2022-10-16T05:10:30;26.73;;;16.02;;
50010;SDS011;35899;50.352;19.390;2022-10-16T05:12:57;25.80;;;15.85;;
50010;SDS011;35899;50.352;19.390;2022-10-16T05:15:24;24.57;;;16.52;;
50010;SDS011;35899;50.352;19.390;2022-10-16T05:17:54;27.42;;;15.83;;
50010;SDS011;35899;50.352;19.390;2022-10-16T05:20:22;25.85;;;16.37;;
50010;SDS011;35899;50.352;19.390;2022-10-16T05:22:49;25.48;;;16.87;;
50010;SDS011;35899;50.352;19.390;2022-10-16T05:25:17;27.40;;;16.95;;
50010;SDS011;35899;50.352;19.390;2022-10-16T05:27:47;24.43;;;16.32;;
50010;SDS011;35899;50.352;19.390;2022-10-16T05:30:15;25.02;;;15.98;;
50010;SDS011;35899;50.352;19.390;2022-10-16T05:35:17;26.55;;;15.05;;
50010;SDS011;35899;50.352;19.390;2022-10-16T05:37:45;21.23;;;14.68;;
50010;SDS011;35899;50.352;19.390;2022-10-16T05:40:13;23.57;;;14.87;;
50010;SDS011;35899;50.352;19.390;2022-10-16T05:42:42;25.48;;;15.25;;
50010;SDS011;35899;50.352;19.390;2022-10-16T05:45:09;27.67;;;16.07;;
50010;SDS011;35899;50.352;19.390;2022-10-16T05:47:38;24.90;;;14.47;;
50010;SDS011;35899;50.352;19.390;2022-10-16T05:50:05;24.12;;;14.83;;
50010;SDS011;35899;50.352;19.390;2022-10-16T05:52:32;27.62;;;14.63;;
50010;SDS011;35899;50.352;19.390;2022-10-16T05:54:59;20.55;;;14.13;;
50010;SDS011;35899;50.352;19.390;2022-10-16T05:57:26;26.33;;;14.65;;
50010;SDS011;35899;50.352;19.390;2022-10-16T05:59:53;23.65;;;13.93;;
50010;SDS011;35899;50.352;19.390;2022-10-16T06:02:20;24.12;;;14.78;;
50010;SDS011;35899;50.352;19.390;2022-10-16T06:04:47;26.87;;;14.87;;
50010;SDS011;35899;50.352;19.390;2022-10-16T06:07:14;51.77;;;28.20;;
50010;SDS011;35899;50.352;19.390;2022-10-16T06:09:41;32.45;;;20.75;;
50010;SDS011;35899;50.352;19.390;2022-10-16T06:12:08;49.48;;;27.58;;
50010;SDS011;35899;50.352;19.390;2022-10-16T06:14:36;51.98;;;30.32;;
50010;SDS011;35899;50.352;19.390;2022-10-16T06:17:03;58.50;;;35.35;;
50010;SDS011;35899;50.352;19.390;2022-10-16T06:19:30;67.72;;;41.30;;
50010;SDS011;35899;50.352;19.390;2022-10-16T06:21:58;46.63;;;28.90;;
50010;SDS011;35899;50.352;19.390;2022-10-16T06:24:25;41.33;;;24.98;;
50010;SDS011;35899;50.352;19.390;2022-10-16T06:26:52;32.73;;;20.12;;
50010;SDS011;35899;50.352;19.390;2022-10-16T06:29:20;31.80;;;19.95;;
50010;SDS011;35899;50.352;19.390;2022-10-16T06:31:47;29.85;;;17.35;;
50010;SDS011;35899;50.352;19.390;2022-10-16T06:34:14;27.90;;;17.27;;
50010;SDS011;35899;50.352;19.390;2022-10-16T06:36:42;30.40;;;17.82;;
50010;SDS011;35899;50.352;19.390;2022-10-16T06:39:09;27.62;;;18.62;;
50010;SDS011;35899;50.352;19.390;2022-10-16T06:41:36;30.48;;;20.08;;
50010;SDS011;35899;50.352;19.390;2022-10-16T06:44:06;30.15;;;20.17;;
50010;SDS011;35899;50.352;19.390;2022-10-16T06:46:35;23.00;;;16.20;;
50010;SDS011;35899;50.352;19.390;2022-10-16T06:49:02;20.30;;;14.05;;
50010;SDS011;35899;50.352;19.390;2022-10-16T06:51:30;19.37;;;13.78;;
50010;SDS011;35899;50.352;19.390;2022-10-16T06:53:58;19.87;;;13.35;;
50010;SDS011;35899;50.352;19.390;2022-10-16T06:56:25;19.32;;;13.05;;
50010;SDS011;35899;50.352;19.390;2022-10-16T06:58:55;19.73;;;13.43;;
50010;SDS011;35899;50.352;19.390;2022-10-16T07:01:23;21.23;;;14.20;;
50010;SDS011;35899;50.352;19.390;2022-10-16T07:03:51;20.97;;;14.90;;
50010;SDS011;35899;50.352;19.390;2022-10-16T07:06:19;19.73;;;13.60;;
50010;SDS011;35899;50.352;19.390;2022-10-16T07:08:49;17.70;;;13.35;;
50010;SDS011;35899;50.352;19.390;2022-10-16T07:11:17;20.85;;;14.93;;
50010;SDS011;35899;50.352;19.390;2022-10-16T07:13:47;22.07;;;15.00;;
50010;SDS011;35899;50.352;19.390;2022-10-16T07:16:17;22.85;;;15.85;;
50010;SDS011;35899;50.352;19.390;2022-10-16T07:18:46;23.55;;;15.83;;
50010;SDS011;35899;50.352;19.390;2022-10-16T07:21:16;21.00;;;15.55;;
50010;SDS011;35899;50.352;19.390;2022-10-16T07:23:50;19.90;;;14.30;;
50010;SDS011;35899;50.352;19.390;2022-10-16T07:26:18;20.08;;;14.15;;
50010;SDS011;35899;50.352;19.390;2022-10-16T07:28:46;19.07;;;12.45;;
50010;SDS011;35899;50.352;19.390;2022-10-16T07:31:14;17.98;;;12.60;;
50010;SDS011;35899;50.352;19.390;2022-10-16T07:33:43;17.25;;;12.53;;
50010;SDS011;35899;50.352;19.390;2022-10-16T07:36:11;17.82;;;11.83;;
50010;SDS011;35899;50.352;19.390;2022-10-16T07:38:40;14.95;;;11.90;;
50010;SDS011;35899;50.352;19.390;2022-10-16T07:41:09;17.15;;;12.18;;
50010;SDS011;35899;50.352;19.390;2022-10-16T07:46:16;19.98;;;12.82;;
50010;SDS011;35899;50.352;19.390;2022-10-16T07:48:45;19.30;;;13.22;;
50010;SDS011;35899;50.352;19.390;2022-10-16T07:51:14;17.80;;;11.33;;
50010;SDS011;35899;50.352;19.390;2022-10-16T07:53:44;18.32;;;12.10;;
50010;SDS011;35899;50.352;19.390;2022-10-16T07:56:13;27.58;;;17.67;;
50010;SDS011;35899;50.352;19.390;2022-10-16T07:58:41;23.38;;;15.72;;
50010;SDS011;35899;50.352;19.390;2022-10-16T08:01:09;20.17;;;13.03;;
50010;SDS011;35899;50.352;19.390;2022-10-16T08:03:41;13.88;;;10.65;;
50010;SDS011;35899;50.352;19.390;2022-10-16T08:06:10;16.50;;;10.82;;
50010;SDS011;35899;50.352;19.390;2022-10-16T08:08:37;15.08;;;9.68;;
50010;SDS011;35899;50.352;19.390;2022-10-16T08:11:04;15.03;;;9.75;;
50010;SDS011;35899;50.352;19.390;2022-10-16T08:13:31;14.18;;;8.73;;
50010;SDS011;35899;50.352;19.390;2022-10-16T08:15:58;13.25;;;8.60;;
50010;SDS011;35899;50.352;19.390;2022-10-16T08:18:26;11.73;;;9.23;;
50010;SDS011;35899;50.352;19.390;2022-10-16T08:20:56;12.95;;;9.30;;
50010;SDS011;35899;50.352;19.390;2022-10-16T08:23:26;11.25;;;7.90;;
50010;SDS011;35899;50.352;19.390;2022-10-16T08:25:54;12.40;;;8.33;;
50010;SDS011;35899;50.352;19.390;2022-10-16T08:28:25;10.82;;;8.03;;
50010;SDS011;35899;50.352;19.390;2022-10-16T08:30:52;11.35;;;7.87;;
50010;SDS011;35899;50.352;19.390;2022-10-16T08:33:19;11.53;;;8.68;;
50010;SDS011;35899;50.352;19.390;2022-10-16T08:35:52;13.48;;;7.87;;
50010;SDS011;35899;50.352;19.390;2022-10-16T08:38:20;11.88;;;7.92;;
50010;SDS011;35899;50.352;19.390;2022-10-16T08:40:48;11.60;;;8.08;;
50010;SDS011;35899;50.352;19.390;2022-10-16T08:51:22;11.43;;;8.58;;
50010;SDS011;35899;50.352;19.390;2022-10-16T08:54:02;12.33;;;10.00;;
50010;SDS011;35899;50.352;19.390;2022-10-16T08:56:30;10.63;;;7.40;;
50010;SDS011;35899;50.352;19.390;2022-10-16T08:58:59;12.23;;;8.15;;
50010;SDS011;35899;50.352;19.390;2022-10-16T09:12:40;9.80;;;6.67;;
50010;SDS011;35899;50.352;19.390;2022-10-16T09:18:09;7.97;;;6.20;;
50010;SDS011;35899;50.352;19.390;2022-10-16T09:20:59;8.38;;;6.47;;
50010;SDS011;35899;50.352;19.390;2022-10-16T09:23:51;8.33;;;6.12;;
50010;SDS011;35899;50.352;19.390;2022-10-16T09:26:20;9.90;;;6.47;;
50010;SDS011;35899;50.352;19.390;2022-10-16T09:28:48;10.43;;;6.97;;
50010;SDS011;35899;50.352;19.390;2022-10-16T09:31:16;8.05;;;6.15;;
50010;SDS011;35899;50.352;19.390;2022-10-16T09:36:19;11.43;;;6.12;;
50010;SDS011;35899;50.352;19.390;2022-10-16T09:38:48;6.85;;;6.03;;
50010;SDS011;35899;50.352;19.390;2022-10-16T09:41:19;8.20;;;5.17;;
50010;SDS011;35899;50.352;19.390;2022-10-16T09:44:01;5.95;;;5.35;;
50010;SDS011;35899;50.352;19.390;2022-10-16T09:46:36;5.92;;;5.33;;
50010;SDS011;35899;50.352;19.390;2022-10-16T09:49:05;9.38;;;6.37;;
50010;SDS011;35899;50.352;19.390;2022-10-16T09:51:50;15.80;;;10.08;;
50010;SDS011;35899;50.352;19.390;2022-10-16T09:54:20;14.53;;;9.15;;
50010;SDS011;35899;50.352;19.390;2022-10-16T09:56:48;9.95;;;6.92;;
50010;SDS011;35899;50.352;19.390;2022-10-16T09:59:21;8.83;;;6.28;;
50010;SDS011;35899;50.352;19.390;2022-10-16T10:01:53;8.85;;;6.80;;
50010;SDS011;35899;50.352;19.390;2022-10-16T10:04:22;7.60;;;6.58;;
50010;SDS011;35899;50.352;19.390;2022-10-16T10:06:52;8.75;;;6.65;;
50010;SDS011;35899;50.352;19.390;2022-10-16T10:09:22;9.73;;;6.50;;
50010;SDS011;35899;50.352;19.390;2022-10-16T10:12:00;7.37;;;6.62;;
50010;SDS011;35899;50.352;19.390;2022-10-16T10:14:36;9.00;;;6.12;;
50010;SDS011;35899;50.352;19.390;2022-10-16T10:17:12;7.50;;;5.70;;
50010;SDS011;35899;50.352;19.390;2022-10-16T10:23:01;8.30;;;6.12;;
50010;SDS011;35899;50.352;19.390;2022-10-16T10:31:43;7.45;;;6.58;;
50010;SDS011;35899;50.352;19.390;2022-10-16T10:46:14;8.90;;;7.28;;
50010;SDS011;35899;50.352;19.390;2022-10-16T11:00:43;8.25;;;6.08;;
50010;SDS011;35899;50.352;19.390;2022-10-16T11:06:17;9.70;;;6.33;;
50010;SDS011;35899;50.352;19.390;2022-10-16T11:11:51;9.48;;;5.83;;
50010;SDS011;35899;50.352;19.390;2022-10-16T11:14:30;8.10;;;5.10;;
50010;SDS011;35899;50.352;19.390;2022-10-16T11:17:13;6.42;;;4.87;;
50010;SDS011;35899;50.352;19.390;2022-10-16T11:25:38;6.37;;;4.20;;
50010;SDS011;35899;50.352;19.390;2022-10-16T11:31:09;4.40;;;3.87;;
50010;SDS011;35899;50.352;19.390;2022-10-16T11:33:51;4.97;;;4.08;;
50010;SDS011;35899;50.352;19.390;2022-10-16T11:36:49;8.55;;;4.05;;
50010;SDS011;35899;50.352;19.390;2022-10-16T11:39:42;6.70;;;4.08;;
50010;SDS011;35899;50.352;19.390;2022-10-16T11:48:12;5.53;;;4.47;;
50010;SDS011;35899;50.352;19.390;2022-10-16T11:50:53;5.28;;;4.15;;
50010;SDS011;35899;50.352;19.390;2022-10-16T11:56:32;5.22;;;4.05;;
50010;SDS011;35899;50.352;19.390;2022-10-16T11:59:17;5.72;;;3.90;;
50010;SDS011;35899;50.352;19.390;2022-10-16T12:07:53;4.20;;;3.80;;
50010;SDS011;35899;50.352;19.390;2022-10-16T12:10:35;7.87;;;4.05;;
50010;SDS011;35899;50.352;19.390;2022-10-16T12:13:04;7.35;;;4.17;;
50010;SDS011;35899;50.352;19.390;2022-10-16T12:15:52;5.95;;;3.98;;
50010;SDS011;35899;50.352;19.390;2022-10-16T12:18:42;5.25;;;4.22;;
50010;SDS011;35899;50.352;19.390;2022-10-16T12:21:12;4.03;;;3.70;;
50010;SDS011;35899;50.352;19.390;2022-10-16T12:23:50;4.00;;;3.63;;
50010;SDS011;35899;50.352;19.390;2022-10-16T12:26:26;4.65;;;3.95;;
50010;SDS011;35899;50.352;19.390;2022-10-16T12:32:05;5.15;;;3.80;;
50010;SDS011;35899;50.352;19.390;2022-10-16T12:35:05;6.50;;;3.90;;
50010;SDS011;35899;50.352;19.390;2022-10-16T12:37:46;6.08;;;3.95;;
50010;SDS011;35899;50.352;19.390;2022-10-16T12:42:52;6.17;;;4.45;;
50010;SDS011;35899;50.352;19.390;2022-10-16T12:48:03;6.30;;;4.03;;
50010;SDS011;35899;50.352;19.390;2022-10-16T12:53:25;5.70;;;4.80;;
50010;SDS011;35899;50.352;19.390;2022-10-16T12:56:00;6.12;;;4.25;;
50010;SDS011;35899;50.352;19.390;2022-10-16T13:22:05;6.80;;;5.40;;
50010;SDS011;35899;50.352;19.390;2022-10-16T13:27:46;8.38;;;5.37;;
50010;SDS011;35899;50.352;19.390;2022-10-16T13:33:30;8.00;;;5.10;;
50010;SDS011;35899;50.352;19.390;2022-10-16T13:36:06;6.25;;;5.22;;
50010;SDS011;35899;50.352;19.390;2022-10-16T13:38:35;8.40;;;5.22;;
50010;SDS011;35899;50.352;19.390;2022-10-16T13:41:11;7.40;;;5.70;;
50010;SDS011;35899;50.352;19.390;2022-10-16T13:46:21;7.55;;;5.50;;
50010;SDS011;35899;50.352;19.390;2022-10-16T13:48:56;6.78;;;5.15;;
50010;SDS011;35899;50.352;19.390;2022-10-16T13:51:28;6.95;;;5.40;;
50010;SDS011;35899;50.352;19.390;2022-10-16T13:53:57;8.18;;;5.65;;
50010;SDS011;35899;50.352;19.390;2022-10-16T13:56:26;10.13;;;5.55;;
50010;SDS011;35899;50.352;19.390;2022-10-16T13:59:01;6.07;;;5.30;;
50010;SDS011;35899;50.352;19.390;2022-10-16T14:01:32;7.70;;;5.37;;
50010;SDS011;35899;50.352;19.390;2022-10-16T14:04:09;11.63;;;5.15;;
50010;SDS011;35899;50.352;19.390;2022-10-16T14:06:42;6.85;;;5.53;;
50010;SDS011;35899;50.352;19.390;2022-10-16T14:14:40;7.70;;;5.53;;
50010;SDS011;35899;50.352;19.390;2022-10-16T14:17:23;10.60;;;5.40;;
50010;SDS011;35899;50.352;19.390;2022-10-16T14:19:57;9.05;;;5.47;;
50010;SDS011;35899;50.352;19.390;2022-10-16T14:22:34;8.18;;;5.72;;
50010;SDS011;35899;50.352;19.390;2022-10-16T14:28:00;7.37;;;6.28;;
50010;SDS011;35899;50.352;19.390;2022-10-16T14:30:32;8.25;;;7.15;;
50010;SDS011;35899;50.352;19.390;2022-10-16T14:35:36;7.75;;;6.12;;
50010;SDS011;35899;50.352;19.390;2022-10-16T14:38:06;9.28;;;6.08;;
50010;SDS011;35899;50.352;19.390;2022-10-16T14:40:37;9.87;;;6.37;;
50010;SDS011;35899;50.352;19.390;2022-10-16T14:43:04;8.05;;;5.92;;
50010;SDS011;35899;50.352;19.390;2022-10-16T14:45:32;8.78;;;6.03;;
50010;SDS011;35899;50.352;19.390;2022-10-16T14:48:03;8.28;;;5.97;;
50010;SDS011;35899;50.352;19.390;2022-10-16T14:50:37;9.63;;;5.40;;
50010;SDS011;35899;50.352;19.390;2022-10-16T14:53:08;10.78;;;6.72;;
50010;SDS011;35899;50.352;19.390;2022-10-16T14:55:39;9.35;;;6.37;;
50010;SDS011;35899;50.352;19.390;2022-10-16T14:58:13;10.13;;;6.35;;
50010;SDS011;35899;50.352;19.390;2022-10-16T15:00:47;9.18;;;6.90;;
50010;SDS011;35899;50.352;19.390;2022-10-16T15:03:18;9.53;;;7.05;;
50010;SDS011;35899;50.352;19.390;2022-10-16T15:05:45;11.20;;;6.45;;
50010;SDS011;35899;50.352;19.390;2022-10-16T15:08:12;9.95;;;7.25;;
50010;SDS011;35899;50.352;19.390;2022-10-16T15:10:40;9.33;;;6.95;;
50010;SDS011;35899;50.352;19.390;2022-10-16T15:13:15;9.30;;;6.92;;
50010;SDS011;35899;50.352;19.390;2022-10-16T15:15:44;11.40;;;7.75;;
50010;SDS011;35899;50.352;19.390;2022-10-16T15:18:13;10.93;;;7.78;;
50010;SDS011;35899;50.352;19.390;2022-10-16T15:20:42;10.78;;;7.42;;
50010;SDS011;35899;50.352;19.390;2022-10-16T15:23:13;10.48;;;7.22;;
50010;SDS011;35899;50.352;19.390;2022-10-16T15:28:20;10.50;;;7.97;;
50010;SDS011;35899;50.352;19.390;2022-10-16T15:30:50;13.48;;;8.00;;
50010;SDS011;35899;50.352;19.390;2022-10-16T15:33:20;13.40;;;8.28;;
50010;SDS011;35899;50.352;19.390;2022-10-16T15:35:53;11.63;;;8.38;;
50010;SDS011;35899;50.352;19.390;2022-10-16T15:38:21;12.53;;;7.60;;
50010;SDS011;35899;50.352;19.390;2022-10-16T15:40:49;10.72;;;7.28;;
50010;SDS011;35899;50.352;19.390;2022-10-16T15:43:16;13.53;;;9.45;;
50010;SDS011;35899;50.352;19.390;2022-10-16T15:45:47;11.78;;;9.20;;
50010;SDS011;35899;50.352;19.390;2022-10-16T15:48:32;13.78;;;8.40;;
50010;SDS011;35899;50.352;19.390;2022-10-16T15:51:00;12.65;;;8.68;;
50010;SDS011;35899;50.352;19.390;2022-10-16T15:53:33;10.98;;;7.65;;
50010;SDS011;35899;50.352;19.390;2022-10-16T15:58:31;13.58;;;8.10;;
50010;SDS011;35899;50.352;19.390;2022-10-16T16:00:59;14.78;;;9.73;;
50010;SDS011;35899;50.352;19.390;2022-10-16T16:03:28;14.60;;;8.98;;
50010;SDS011;35899;50.352;19.390;2022-10-16T16:05:56;14.47;;;9.48;;
50010;SDS011;35899;50.352;19.390;2022-10-16T16:08:24;16.87;;;12.70;;
50010;SDS011;35899;50.352;19.390;2022-10-16T16:13:40;14.05;;;9.53;;
50010;SDS011;35899;50.352;19.390;2022-10-16T16:18:40;14.00;;;9.33;;
50010;SDS011;35899;50.352;19.390;2022-10-16T16:21:10;14.45;;;9.48;;
50010;SDS011;35899;50.352;19.390;2022-10-16T16:23:38;13.28;;;9.33;;
50010;SDS011;35899;50.352;19.390;2022-10-16T16:28:54;21.50;;;12.37;;
50010;SDS011;35899;50.352;19.390;2022-10-16T16:31:26;19.10;;;13.40;;
50010;SDS011;35899;50.352;19.390;2022-10-16T16:33:55;15.98;;;11.57;;
50010;SDS011;35899;50.352;19.390;2022-10-16T16:36:23;13.58;;;9.73;;
50010;SDS011;35899;50.352;19.390;2022-10-16T16:38:51;18.00;;;9.85;;
50010;SDS011;35899;50.352;19.390;2022-10-16T16:41:19;16.30;;;9.90;;
50010;SDS011;35899;50.352;19.390;2022-10-16T16:43:50;15.80;;;9.40;;
50010;SDS011;35899;50.352;19.390;2022-10-16T16:46:20;13.85;;;10.18;;
50010;SDS011;35899;50.352;19.390;2022-10-16T16:48:48;15.10;;;9.73;;
50010;SDS011;35899;50.352;19.390;2022-10-16T16:51:20;13.35;;;9.10;;
50010;SDS011;35899;50.352;19.390;2022-10-16T16:53:49;15.45;;;10.00;;
50010;SDS011;35899;50.352;19.390;2022-10-16T16:56:18;16.75;;;10.98;;
50010;SDS011;35899;50.352;19.390;2022-10-16T16:58:47;16.00;;;10.60;;
50010;SDS011;35899;50.352;19.390;2022-10-16T17:01:16;16.73;;;10.45;;
50010;SDS011;35899;50.352;19.390;2022-10-16T17:03:44;16.35;;;10.55;;
50010;SDS011;35899;50.352;19.390;2022-10-16T17:06:12;16.35;;;9.98;;
50010;SDS011;35899;50.352;19.390;2022-10-16T17:08:43;19.30;;;12.05;;
50010;SDS011;35899;50.352;19.390;2022-10-16T17:11:14;19.90;;;11.40;;
50010;SDS011;35899;50.352;19.390;2022-10-16T17:13:44;20.50;;;12.78;;
50010;SDS011;35899;50.352;19.390;2022-10-16T17:16:11;67.10;;;55.85;;
50010;SDS011;35899;50.352;19.390;2022-10-16T17:18:39;45.40;;;33.48;;
50010;SDS011;35899;50.352;19.390;2022-10-16T17:21:08;30.23;;;21.07;;
50010;SDS011;35899;50.352;19.390;2022-10-16T17:23:36;36.58;;;26.93;;
50010;SDS011;35899;50.352;19.390;2022-10-16T17:26:05;59.42;;;49.03;;
50010;SDS011;35899;50.352;19.390;2022-10-16T17:28:36;35.25;;;29.95;;
50010;SDS011;35899;50.352;19.390;2022-10-16T17:31:06;21.48;;;16.17;;
50010;SDS011;35899;50.352;19.390;2022-10-16T17:33:39;19.00;;;12.82;;
50010;SDS011;35899;50.352;19.390;2022-10-16T17:36:06;16.60;;;11.75;;
50010;SDS011;35899;50.352;19.390;2022-10-16T17:38:34;16.87;;;11.48;;
50010;SDS011;35899;50.352;19.390;2022-10-16T17:41:15;19.30;;;13.78;;
50010;SDS011;35899;50.352;19.390;2022-10-16T17:43:48;18.25;;;12.20;;
50010;SDS011;35899;50.352;19.390;2022-10-16T17:46:17;21.02;;;13.30;;